Offutt, Kentucky
Current Conditions -  °F | °C
As of 2:15 PM on Monday 22 Dec 2014 (Local Time) from KSJS Reporting Station
Broken Clouds Broken Clouds  
Wind Chill: 55°   Ceiling: 4800
Heat Index: 55°   Visibility: 10mi
Dew Point: 40°   Wind: 5mph
Humidity: 57%   Direction: 70°ENE
Pressure: 29.9"   Gusts: NA
Location:  37.7517°N, 82.9074°W
Report Text: KSJS 221915Z AUTO 07004KT 10SM BKN048 13/05 A2990 RMK AO2 T01300047
Loading
Personal Weather Stations






























Interactive Weather Map New forecast layout! Learn more

10-Day Weather Forecast

Advertisements
Track Severe Weather on mobile